Global Endeavor — 3EOJ9 — position and weather

sailwx.info

Track history (hours):
 
Tides and Currents Weather Stations Pressure Air Temp Water Temp Dewpoint Dewpoint Depression Visibility Wind Speed Wind Dir Waves Ship Positions

Global Endeavor

Last reported at 2017-Jan-10 09:03 UTC. Time now 2017-Jan-17 02:55 UTC.
Position N 46°11' W 125°30'.

Length 175 m; draft 9.6 m.

Type: Cargo ship. MMSI: 356619000.

Date/timePositionNaut miles runAvg speedWind from/ knotsBaromVisibWave heightAir tempDewpointWater temp
2017-Jan-10 09:03N 46°11' W 125°30'12 7.8
2017-Jan-10 07:33N 46°12' W 125°13'8 8.4
2017-Jan-10 06:33N 46°13' W 125°01'9 8.9
2017-Jan-10 05:33N 46°12' W 124°48'10 9.7
2017-Jan-10 04:33N 46°12' W 124°34'10 9.9
2017-Jan-10 03:33N 46°13' W 124°20'8 8.1
2017-Jan-10 02:34N 46°13' W 124°08'9 9.0
2017-Jan-10 01:33N 46°12' W 123°55'1010.0
2017-Jan-10 00:34N 46°15' W 123°41'1111.2
2017-Jan-09 23:34N 46°13' W 123°25'8 8.3
2017-Jan-09 22:33N 46°10' W 123°14'9 9.2
2017-Jan-09 21:33N 46°08' W 123°01'3 3.2
2017-Jan-09 20:33N 46°07' W 122°58'0 0.0
2017-Jan-09 19:33N 46°07' W 122°58'0 0.0
2017-Jan-09 18:30N 46°07' W 122°58'0 0.0
2017-Jan-09 17:27N 46°07' W 122°58'0 0.0
2017-Jan-09 16:33N 46°07' W 122°58'0 0.0
2017-Jan-09 15:33N 46°07' W 122°58'0 0.0
2017-Jan-09 14:33N 46°07' W 122°58'0 0.0
2017-Jan-09 13:33N 46°07' W 122°58'0 0.0
2017-Jan-09 12:33N 46°07' W 122°58'0 0.0
2017-Jan-09 11:33N 46°07' W 122°58'0 0.0
2017-Jan-09 10:33N 46°07' W 122°58'0 0.0
2017-Jan-09 09:33N 46°07' W 122°58'0 0.0
2017-Jan-09 08:33N 46°07' W 122°58'0 0.0
2017-Jan-09 07:27N 46°07' W 122°58'0 0.0
2017-Jan-09 06:30N 46°07' W 122°58'0 0.0
2017-Jan-09 05:33N 46°07' W 122°58'0 0.0
2017-Jan-09 04:33N 46°07' W 122°58'0 0.0
2017-Jan-09 03:33N 46°07' W 122°58'0 0.0
2017-Jan-09 02:33N 46°07' W 122°58'0 0.0
2017-Jan-09 01:33N 46°07' W 122°58'0 0.0
2017-Jan-09 00:33N 46°07' W 122°58'0 0.0
2017-Jan-08 23:33N 46°07' W 122°58'0 0.0
2017-Jan-08 22:33N 46°07' W 122°58'0 0.0
2017-Jan-08 21:33N 46°07' W 122°58'0 0.0
2017-Jan-08 20:33N 46°07' W 122°58'0 0.0
2017-Jan-08 19:33N 46°07' W 122°58'0 0.0
2017-Jan-08 18:33N 46°07' W 122°58'0 0.0
2017-Jan-08 17:33N 46°07' W 122°58'0 0.0
2017-Jan-08 16:33N 46°07' W 122°58'0 0.0
2017-Jan-08 15:33N 46°07' W 122°58'0 0.0
2017-Jan-08 14:33N 46°07' W 122°58'0 0.0
2017-Jan-08 13:33N 46°07' W 122°58'0 0.0
2017-Jan-08 12:33N 46°07' W 122°58'0 0.0
2017-Jan-08 11:30N 46°07' W 122°58'0 0.0
2017-Jan-08 10:33N 46°07' W 122°58'0 0.0
2017-Jan-08 09:33N 46°07' W 122°58'0 0.0
2017-Jan-08 08:30N 46°07' W 122°58'0 0.0
2017-Jan-08 07:33N 46°07' W 122°58'0 0.0
2017-Jan-08 06:33N 46°07' W 122°58'0 0.0
2017-Jan-08 05:33N 46°07' W 122°58'0 0.0
2017-Jan-08 04:33N 46°07' W 122°58'0 0.0
2017-Jan-08 03:33N 46°07' W 122°58'0 0.0
2017-Jan-08 02:33N 46°07' W 122°58'0 0.0
2017-Jan-08 01:33N 46°07' W 122°58'0 0.0
2017-Jan-08 00:33N 46°07' W 122°58'0 0.0
2017-Jan-07 23:33N 46°07' W 122°58'0 0.0
2017-Jan-07 22:33N 46°07' W 122°58'0 0.0
2017-Jan-07 21:30N 46°07' W 122°58'0 0.0
2017-Jan-07 20:33N 46°07' W 122°58'0 0.0
2017-Jan-07 19:33N 46°07' W 122°58'0 0.0
2017-Jan-07 18:30N 46°07' W 122°58'0 0.0
2017-Jan-07 17:33N 46°07' W 122°58'0 0.0
2017-Jan-07 16:30N 46°07' W 122°58'0 0.0
2017-Jan-07 15:33N 46°07' W 122°58'0 0.0
2017-Jan-07 14:30N 46°07' W 122°58'0 0.0
2017-Jan-07 13:33N 46°07' W 122°58'0 0.0
2017-Jan-07 12:33N 46°07' W 122°58'0 0.0
2017-Jan-07 11:33N 46°07' W 122°58'0 0.0
2017-Jan-07 10:33N 46°07' W 122°58'0 0.0
2017-Jan-07 09:33N 46°07' W 122°58'0 0.0
2017-Jan-07 08:33N 46°07' W 122°58'0 0.0
2017-Jan-07 07:33N 46°07' W 122°58'0 0.0
2017-Jan-07 06:33N 46°07' W 122°58'0 0.0
2017-Jan-07 05:33N 46°07' W 122°58'0 0.0
2017-Jan-07 04:30N 46°07' W 122°58'0 0.0
2017-Jan-07 03:33N 46°07' W 122°58'0 0.0
2017-Jan-07 02:33N 46°07' W 122°58'0 0.0
2017-Jan-07 01:30N 46°07' W 122°58'0 0.0
2017-Jan-07 00:30N 46°07' W 122°58'0 0.0
2017-Jan-06 23:33N 46°07' W 122°58'0 0.0
2017-Jan-06 22:33N 46°07' W 122°58'0 0.0
2017-Jan-06 21:30N 46°07' W 122°58'0 0.0
2017-Jan-06 20:33N 46°07' W 122°58'0 0.0
2017-Jan-06 19:33N 46°07' W 122°58'0 0.0
2017-Jan-06 18:33N 46°07' W 122°58'0 0.0
2017-Jan-06 17:33N 46°07' W 122°58'0 0.0
2017-Jan-06 16:33N 46°07' W 122°58'0 0.0
2017-Jan-06 15:33N 46°07' W 122°58'0 0.0
2017-Jan-06 14:33N 46°07' W 122°58'0 0.0
2017-Jan-06 13:33N 46°07' W 122°58'0 0.0
2017-Jan-06 12:30N 46°07' W 122°58'0 0.0
2017-Jan-06 11:33N 46°07' W 122°58'0 0.0
2017-Jan-06 10:33N 46°07' W 122°58'0 0.0
2017-Jan-06 09:33N 46°07' W 122°58'0 0.0
2017-Jan-06 08:33N 46°07' W 122°58'0 0.0
2017-Jan-06 07:33N 46°07' W 122°58'0 0.0
2017-Jan-06 06:33N 46°07' W 122°58'0 0.0
2017-Jan-06 05:33N 46°07' W 122°58'0 0.0
2017-Jan-06 04:33N 46°07' W 122°58'0 0.0
2017-Jan-06 03:33N 46°07' W 122°58'0 0.0
2017-Jan-06 02:33N 46°07' W 122°58'0 0.0
2017-Jan-06 01:33N 46°07' W 122°58'0 0.0
2017-Jan-06 00:33N 46°07' W 122°58'0 0.0
2017-Jan-05 23:30N 46°07' W 122°58'0 0.0
2017-Jan-05 22:33N 46°07' W 122°58'0 0.0
2017-Jan-05 21:33N 46°07' W 122°58'0 0.0
2017-Jan-05 20:33N 46°07' W 122°58'0 0.0
2017-Jan-05 19:33N 46°07' W 122°58'0 0.0
2017-Jan-05 18:33N 46°07' W 122°58'0 0.0
2017-Jan-05 17:33N 46°07' W 122°58'0 0.0
2017-Jan-05 16:33N 46°07' W 122°58'0 0.0
2017-Jan-05 15:33N 46°07' W 122°58'0 0.0
2017-Jan-05 14:33N 46°07' W 122°58'0 0.0
2017-Jan-05 13:33N 46°07' W 122°58'0 0.0
2017-Jan-05 12:33N 46°07' W 122°58'0 0.0
2017-Jan-05 11:30N 46°07' W 122°58'0 0.0
2017-Jan-05 10:33N 46°07' W 122°58'0 0.0
2017-Jan-05 09:33N 46°07' W 122°58'0 0.0
2017-Jan-05 08:33N 46°07' W 122°58'0 0.0
2017-Jan-05 07:33N 46°07' W 122°58'0 0.0
2017-Jan-05 06:34N 46°07' W 122°58'0 0.0
2017-Jan-05 05:33N 46°07' W 122°58'0 0.0
2017-Jan-05 04:33N 46°07' W 122°58'0 0.0
2017-Jan-05 03:33N 46°07' W 122°58'0 0.0
2017-Jan-05 02:34N 46°07' W 122°58'0 0.0
2017-Jan-05 01:33N 46°07' W 122°58'0 0.0
2017-Jan-05 00:33N 46°07' W 122°58'0 0.0
2017-Jan-04 23:33N 46°07' W 122°58'0 0.0
2017-Jan-04 22:33N 46°07' W 122°58'0 0.0
2017-Jan-04 21:33N 46°07' W 122°58'0 0.0
2017-Jan-04 20:33N 46°07' W 122°58'0 0.0
2017-Jan-04 19:33N 46°07' W 122°58'0 0.0
2017-Jan-04 18:33N 46°07' W 122°58'0 0.0
2017-Jan-04 17:33N 46°07' W 122°58'0 0.0
2017-Jan-04 16:30N 46°07' W 122°58'0 0.0
2017-Jan-04 15:33N 46°07' W 122°58'0 0.0
2017-Jan-04 14:33N 46°07' W 122°58'0 0.0
2017-Jan-04 13:33N 46°07' W 122°58'0 0.0
2017-Jan-04 12:33N 46°07' W 122°58'0 0.0
2017-Jan-04 11:33N 46°07' W 122°58'0 0.0
2017-Jan-04 10:33N 46°07' W 122°58'0 0.0
2017-Jan-04 09:33N 46°07' W 122°58'0 0.0
2017-Jan-04 08:33N 46°07' W 122°58'0 0.0
2017-Jan-04 07:21N 46°07' W 122°58'0 0.1
2017-Jan-04 06:33N 46°07' W 122°58'0 0.0
2017-Jan-04 05:24N 46°07' W 122°58'0 0.0
2017-Jan-04 04:33N 46°07' W 122°58'0 0.0
2017-Jan-04 03:33N 46°07' W 122°58'0 0.0
2017-Jan-04 02:33N 46°07' W 122°58'1 0.9
2017-Jan-04 01:31N 46°07' W 122°59'0 0.0
2017-Jan-04 00:31N 46°07' W 122°59'0 0.0
2017-Jan-03 23:31N 46°07' W 122°59'0 0.0
2017-Jan-03 22:31N 46°07' W 122°59'0 0.0
2017-Jan-03 21:28N 46°07' W 122°59'0 0.0
2017-Jan-03 20:31N 46°07' W 122°59'0 0.0
2017-Jan-03 19:31N 46°07' W 122°59'0 0.0
2017-Jan-03 18:31N 46°07' W 122°59'0 0.0
2017-Jan-03 17:31N 46°07' W 122°59'0 0.0
2017-Jan-03 16:31N 46°07' W 122°59'0 0.0
2017-Jan-03 15:31N 46°07' W 122°59'0 0.0
2017-Jan-03 14:28N 46°07' W 122°59'0 0.0
2017-Jan-03 13:31N 46°07' W 122°59'0 0.0
2017-Jan-03 12:31N 46°07' W 122°59'0 0.0
2017-Jan-03 11:28N 46°07' W 122°59'0 0.0
2017-Jan-03 10:31N 46°07' W 122°59'0 0.0
2017-Jan-03 09:31N 46°07' W 122°59'0 0.0
2017-Jan-03 08:28N 46°07' W 122°59'0 0.0
2017-Jan-03 07:31N 46°07' W 122°59'0 0.0
2017-Jan-03 06:31N 46°07' W 122°59'0 0.0
2017-Jan-03 05:31N 46°07' W 122°59'0 0.0
2017-Jan-03 04:31N 46°07' W 122°59'0 0.0
2017-Jan-03 03:31N 46°07' W 122°59'0 0.0
2017-Jan-03 02:31N 46°07' W 122°59'0 0.0
2017-Jan-03 01:31N 46°07' W 122°59'0 0.0
2017-Jan-03 00:31N 46°07' W 122°59'0 0.0
2017-Jan-02 23:31N 46°07' W 122°59'0 0.0
2017-Jan-02 22:31N 46°07' W 122°59'4 3.8
2017-Jan-02 21:34N 46°09' W 123°03'10 9.5
2017-Jan-02 20:33N 46°09' W 123°17'8 8.4
2017-Jan-02 19:33N 46°14' W 123°26'1010.1
2017-Jan-02 18:33N 46°15' W 123°40'10 9.6
2017-Jan-02 17:33N 46°11' W 123°53'8 8.5
2017-Jan-02 16:33N 46°15' W 124°04'9 8.9
2017-Jan-02 15:33N 46°11' W 124°16'1010.0
2017-Jan-02 14:33N 46°11' W 124°30'7 7.3
2017-Jan-02 13:33N 46°12' W 124°41'9 9.5
2017-Jan-02 12:33N 46°10' W 124°54'1010.2
2017-Jan-02 11:33N 46°09' W 125°09'1010.0
2017-Jan-02 10:33N 46°07' W 125°23'  
Track history (hours):
 
Tides and Currents Weather Stations Pressure Air Temp Water Temp Dewpoint Dewpoint Depression Visibility Wind Speed Wind Dir Waves Ship Positions

Global Endeavor

Last reported at 2017-Jan-10 09:03 UTC. Time now 2017-Jan-17 02:55 UTC.
Position N 46°11' W 125°30'.

Length 175 m; draft 9.6 m.

Type: Cargo ship. MMSI: 356619000.

Date/timePositionNaut miles runAvg speedWind from/ knotsBaromVisibWave heightAir tempDewpointWater temp
2017-Jan-10 09:03N 46°11' W 125°30'12 7.8
2017-Jan-10 07:33N 46°12' W 125°13'8 8.4
2017-Jan-10 06:33N 46°13' W 125°01'9 8.9
2017-Jan-10 05:33N 46°12' W 124°48'10 9.7
2017-Jan-10 04:33N 46°12' W 124°34'10 9.9
2017-Jan-10 03:33N 46°13' W 124°20'8 8.1
2017-Jan-10 02:34N 46°13' W 124°08'9 9.0
2017-Jan-10 01:33N 46°12' W 123°55'1010.0
2017-Jan-10 00:34N 46°15' W 123°41'1111.2
2017-Jan-09 23:34N 46°13' W 123°25'8 8.3
2017-Jan-09 22:33N 46°10' W 123°14'9 9.2
2017-Jan-09 21:33N 46°08' W 123°01'3 3.2
2017-Jan-09 20:33N 46°07' W 122°58'0 0.0
2017-Jan-09 19:33N 46°07' W 122°58'0 0.0
2017-Jan-09 18:30N 46°07' W 122°58'0 0.0
2017-Jan-09 17:27N 46°07' W 122°58'0 0.0
2017-Jan-09 16:33N 46°07' W 122°58'0 0.0
2017-Jan-09 15:33N 46°07' W 122°58'0 0.0
2017-Jan-09 14:33N 46°07' W 122°58'0 0.0
2017-Jan-09 13:33N 46°07' W 122°58'0 0.0
2017-Jan-09 12:33N 46°07' W 122°58'0 0.0
2017-Jan-09 11:33N 46°07' W 122°58'0 0.0
2017-Jan-09 10:33N 46°07' W 122°58'0 0.0
2017-Jan-09 09:33N 46°07' W 122°58'0 0.0
2017-Jan-09 08:33N 46°07' W 122°58'0 0.0
2017-Jan-09 07:27N 46°07' W 122°58'0 0.0
2017-Jan-09 06:30N 46°07' W 122°58'0 0.0
2017-Jan-09 05:33N 46°07' W 122°58'0 0.0
2017-Jan-09 04:33N 46°07' W 122°58'0 0.0
2017-Jan-09 03:33N 46°07' W 122°58'0 0.0
2017-Jan-09 02:33N 46°07' W 122°58'0 0.0
2017-Jan-09 01:33N 46°07' W 122°58'0 0.0
2017-Jan-09 00:33N 46°07' W 122°58'0 0.0
2017-Jan-08 23:33N 46°07' W 122°58'0 0.0
2017-Jan-08 22:33N 46°07' W 122°58'0 0.0
2017-Jan-08 21:33N 46°07' W 122°58'0 0.0
2017-Jan-08 20:33N 46°07' W 122°58'0 0.0
2017-Jan-08 19:33N 46°07' W 122°58'0 0.0
2017-Jan-08 18:33N 46°07' W 122°58'0 0.0
2017-Jan-08 17:33N 46°07' W 122°58'0 0.0
2017-Jan-08 16:33N 46°07' W 122°58'0 0.0
2017-Jan-08 15:33N 46°07' W 122°58'0 0.0
2017-Jan-08 14:33N 46°07' W 122°58'0 0.0
2017-Jan-08 13:33N 46°07' W 122°58'0 0.0
2017-Jan-08 12:33N 46°07' W 122°58'0 0.0
2017-Jan-08 11:30N 46°07' W 122°58'0 0.0
2017-Jan-08 10:33N 46°07' W 122°58'0 0.0
2017-Jan-08 09:33N 46°07' W 122°58'0 0.0
2017-Jan-08 08:30N 46°07' W 122°58'0 0.0
2017-Jan-08 07:33N 46°07' W 122°58'0 0.0
2017-Jan-08 06:33N 46°07' W 122°58'0 0.0
2017-Jan-08 05:33N 46°07' W 122°58'0 0.0
2017-Jan-08 04:33N 46°07' W 122°58'0 0.0
2017-Jan-08 03:33N 46°07' W 122°58'0 0.0
2017-Jan-08 02:33N 46°07' W 122°58'0 0.0
2017-Jan-08 01:33N 46°07' W 122°58'0 0.0
2017-Jan-08 00:33N 46°07' W 122°58'0 0.0
2017-Jan-07 23:33N 46°07' W 122°58'0 0.0
2017-Jan-07 22:33N 46°07' W 122°58'0 0.0
2017-Jan-07 21:30N 46°07' W 122°58'0 0.0
2017-Jan-07 20:33N 46°07' W 122°58'0 0.0
2017-Jan-07 19:33N 46°07' W 122°58'0 0.0
2017-Jan-07 18:30N 46°07' W 122°58'0 0.0
2017-Jan-07 17:33N 46°07' W 122°58'0 0.0
2017-Jan-07 16:30N 46°07' W 122°58'0 0.0
2017-Jan-07 15:33N 46°07' W 122°58'0 0.0
2017-Jan-07 14:30N 46°07' W 122°58'0 0.0
2017-Jan-07 13:33N 46°07' W 122°58'0 0.0
2017-Jan-07 12:33N 46°07' W 122°58'0 0.0
2017-Jan-07 11:33N 46°07' W 122°58'0 0.0
2017-Jan-07 10:33N 46°07' W 122°58'0 0.0
2017-Jan-07 09:33N 46°07' W 122°58'0 0.0
2017-Jan-07 08:33N 46°07' W 122°58'0 0.0
2017-Jan-07 07:33N 46°07' W 122°58'0 0.0
2017-Jan-07 06:33N 46°07' W 122°58'0 0.0
2017-Jan-07 05:33N 46°07' W 122°58'0 0.0
2017-Jan-07 04:30N 46°07' W 122°58'0 0.0
2017-Jan-07 03:33N 46°07' W 122°58'0 0.0
2017-Jan-07 02:33N 46°07' W 122°58'0 0.0
2017-Jan-07 01:30N 46°07' W 122°58'0 0.0
2017-Jan-07 00:30N 46°07' W 122°58'0 0.0
2017-Jan-06 23:33N 46°07' W 122°58'0 0.0
2017-Jan-06 22:33N 46°07' W 122°58'0 0.0
2017-Jan-06 21:30N 46°07' W 122°58'0 0.0
2017-Jan-06 20:33N 46°07' W 122°58'0 0.0
2017-Jan-06 19:33N 46°07' W 122°58'0 0.0
2017-Jan-06 18:33N 46°07' W 122°58'0 0.0
2017-Jan-06 17:33N 46°07' W 122°58'0 0.0
2017-Jan-06 16:33N 46°07' W 122°58'0 0.0
2017-Jan-06 15:33N 46°07' W 122°58'0 0.0
2017-Jan-06 14:33N 46°07' W 122°58'0 0.0
2017-Jan-06 13:33N 46°07' W 122°58'0 0.0
2017-Jan-06 12:30N 46°07' W 122°58'0 0.0
2017-Jan-06 11:33N 46°07' W 122°58'0 0.0
2017-Jan-06 10:33N 46°07' W 122°58'0 0.0
2017-Jan-06 09:33N 46°07' W 122°58'0 0.0
2017-Jan-06 08:33N 46°07' W 122°58'0 0.0
2017-Jan-06 07:33N 46°07' W 122°58'0 0.0
2017-Jan-06 06:33N 46°07' W 122°58'0 0.0
2017-Jan-06 05:33N 46°07' W 122°58'0 0.0
2017-Jan-06 04:33N 46°07' W 122°58'0 0.0
2017-Jan-06 03:33N 46°07' W 122°58'0 0.0
2017-Jan-06 02:33N 46°07' W 122°58'0 0.0
2017-Jan-06 01:33N 46°07' W 122°58'0 0.0
2017-Jan-06 00:33N 46°07' W 122°58'0 0.0
2017-Jan-05 23:30N 46°07' W 122°58'0 0.0
2017-Jan-05 22:33N 46°07' W 122°58'0 0.0
2017-Jan-05 21:33N 46°07' W 122°58'0 0.0
2017-Jan-05 20:33N 46°07' W 122°58'0 0.0
2017-Jan-05 19:33N 46°07' W 122°58'0 0.0
2017-Jan-05 18:33N 46°07' W 122°58'0 0.0
2017-Jan-05 17:33N 46°07' W 122°58'0 0.0
2017-Jan-05 16:33N 46°07' W 122°58'0 0.0
2017-Jan-05 15:33N 46°07' W 122°58'0 0.0
2017-Jan-05 14:33N 46°07' W 122°58'0 0.0
2017-Jan-05 13:33N 46°07' W 122°58'0 0.0
2017-Jan-05 12:33N 46°07' W 122°58'0 0.0
2017-Jan-05 11:30N 46°07' W 122°58'0 0.0
2017-Jan-05 10:33N 46°07' W 122°58'0 0.0
2017-Jan-05 09:33N 46°07' W 122°58'0 0.0
2017-Jan-05 08:33N 46°07' W 122°58'0 0.0
2017-Jan-05 07:33N 46°07' W 122°58'0 0.0
2017-Jan-05 06:34N 46°07' W 122°58'0 0.0
2017-Jan-05 05:33N 46°07' W 122°58'0 0.0
2017-Jan-05 04:33N 46°07' W 122°58'0 0.0
2017-Jan-05 03:33N 46°07' W 122°58'0 0.0
2017-Jan-05 02:34N 46°07' W 122°58'0 0.0
2017-Jan-05 01:33N 46°07' W 122°58'0 0.0
2017-Jan-05 00:33N 46°07' W 122°58'0 0.0
2017-Jan-04 23:33N 46°07' W 122°58'0 0.0
2017-Jan-04 22:33N 46°07' W 122°58'0 0.0
2017-Jan-04 21:33N 46°07' W 122°58'0 0.0
2017-Jan-04 20:33N 46°07' W 122°58'0 0.0
2017-Jan-04 19:33N 46°07' W 122°58'0 0.0
2017-Jan-04 18:33N 46°07' W 122°58'0 0.0
2017-Jan-04 17:33N 46°07' W 122°58'0 0.0
2017-Jan-04 16:30N 46°07' W 122°58'0 0.0
2017-Jan-04 15:33N 46°07' W 122°58'0 0.0
2017-Jan-04 14:33N 46°07' W 122°58'0 0.0
2017-Jan-04 13:33N 46°07' W 122°58'0 0.0
2017-Jan-04 12:33N 46°07' W 122°58'0 0.0
2017-Jan-04 11:33N 46°07' W 122°58'0 0.0
2017-Jan-04 10:33N 46°07' W 122°58'0 0.0
2017-Jan-04 09:33N 46°07' W 122°58'0 0.0
2017-Jan-04 08:33N 46°07' W 122°58'0 0.0
2017-Jan-04 07:21N 46°07' W 122°58'0 0.1
2017-Jan-04 06:33N 46°07' W 122°58'0 0.0
2017-Jan-04 05:24N 46°07' W 122°58'0 0.0
2017-Jan-04 04:33N 46°07' W 122°58'0 0.0
2017-Jan-04 03:33N 46°07' W 122°58'0 0.0
2017-Jan-04 02:33N 46°07' W 122°58'1 0.9
2017-Jan-04 01:31N 46°07' W 122°59'0 0.0
2017-Jan-04 00:31N 46°07' W 122°59'0 0.0
2017-Jan-03 23:31N 46°07' W 122°59'0 0.0
2017-Jan-03 22:31N 46°07' W 122°59'0 0.0
2017-Jan-03 21:28N 46°07' W 122°59'0 0.0
2017-Jan-03 20:31N 46°07' W 122°59'0 0.0
2017-Jan-03 19:31N 46°07' W 122°59'0 0.0
2017-Jan-03 18:31N 46°07' W 122°59'0 0.0
2017-Jan-03 17:31N 46°07' W 122°59'0 0.0
2017-Jan-03 16:31N 46°07' W 122°59'0 0.0
2017-Jan-03 15:31N 46°07' W 122°59'0 0.0
2017-Jan-03 14:28N 46°07' W 122°59'0 0.0
2017-Jan-03 13:31N 46°07' W 122°59'0 0.0
2017-Jan-03 12:31N 46°07' W 122°59'0 0.0
2017-Jan-03 11:28N 46°07' W 122°59'0 0.0
2017-Jan-03 10:31N 46°07' W 122°59'0 0.0
2017-Jan-03 09:31N 46°07' W 122°59'0 0.0
2017-Jan-03 08:28N 46°07' W 122°59'0 0.0
2017-Jan-03 07:31N 46°07' W 122°59'0 0.0
2017-Jan-03 06:31N 46°07' W 122°59'0 0.0
2017-Jan-03 05:31N 46°07' W 122°59'0 0.0
2017-Jan-03 04:31N 46°07' W 122°59'0 0.0
2017-Jan-03 03:31N 46°07' W 122°59'0 0.0
2017-Jan-03 02:31N 46°07' W 122°59'0 0.0
2017-Jan-03 01:31N 46°07' W 122°59'0 0.0
2017-Jan-03 00:31N 46°07' W 122°59'0 0.0
2017-Jan-02 23:31N 46°07' W 122°59'0 0.0
2017-Jan-02 22:31N 46°07' W 122°59'4 3.8
2017-Jan-02 21:34N 46°09' W 123°03'10 9.5
2017-Jan-02 20:33N 46°09' W 123°17'8 8.4
2017-Jan-02 19:33N 46°14' W 123°26'1010.1
2017-Jan-02 18:33N 46°15' W 123°40'10 9.6
2017-Jan-02 17:33N 46°11' W 123°53'8 8.5
2017-Jan-02 16:33N 46°15' W 124°04'9 8.9
2017-Jan-02 15:33N 46°11' W 124°16'1010.0
2017-Jan-02 14:33N 46°11' W 124°30'7 7.3
2017-Jan-02 13:33N 46°12' W 124°41'9 9.5
2017-Jan-02 12:33N 46°10' W 124°54'1010.2
2017-Jan-02 11:33N 46°09' W 125°09'1010.0
2017-Jan-02 10:33N 46°07' W 125°23'  

Dump ship's entire track history